sensor_id;sensor_type;location;lat;lon;timestamp;temperature;humidity
19224;DHT22;9746;47.180;9.776;2023-08-06T06:52:17;15.10;99.90
19224;DHT22;9746;47.180;9.776;2023-08-06T06:54:45;15.30;99.90
19224;DHT22;9746;47.180;9.776;2023-08-06T06:57:12;15.40;99.90
19224;DHT22;9746;47.180;9.776;2023-08-06T06:59:40;15.50;99.90
19224;DHT22;9746;47.180;9.776;2023-08-06T07:02:07;15.50;99.90
19224;DHT22;9746;47.180;9.776;2023-08-06T07:04:34;15.60;99.90
19224;DHT22;9746;47.180;9.776;2023-08-06T07:07:22;15.60;99.90
19224;DHT22;9746;47.180;9.776;2023-08-06T07:09:49;15.60;99.90
19224;DHT22;9746;47.180;9.776;2023-08-06T07:12:26;15.50;99.90
19224;DHT22;9746;47.180;9.776;2023-08-06T07:14:54;15.60;99.90
19224;DHT22;9746;47.180;9.776;2023-08-06T07:17:22;15.60;99.90
19224;DHT22;9746;47.180;9.776;2023-08-06T07:19:50;15.60;99.90
19224;DHT22;9746;47.180;9.776;2023-08-06T07:22:21;15.60;99.90
19224;DHT22;9746;47.180;9.776;2023-08-06T07:24:56;15.60;99.90
19224;DHT22;9746;47.180;9.776;2023-08-06T07:27:24;15.70;99.90
19224;DHT22;9746;47.180;9.776;2023-08-06T07:29:52;15.80;99.90
19224;DHT22;9746;47.180;9.776;2023-08-06T07:32:21;15.80;99.90
19224;DHT22;9746;47.180;9.776;2023-08-06T07:34:48;15.90;99.90
19224;DHT22;9746;47.180;9.776;2023-08-06T07:37:16;16.00;99.90
19224;DHT22;9746;47.180;9.776;2023-08-06T07:39:45;16.00;99.90
19224;DHT22;9746;47.180;9.776;2023-08-06T07:42:12;16.00;99.90
19224;DHT22;9746;47.180;9.776;2023-08-06T07:44:39;16.10;99.90
19224;DHT22;9746;47.180;9.776;2023-08-06T07:47:07;16.20;99.90
19224;DHT22;9746;47.180;9.776;2023-08-06T07:49:34;16.30;99.90
19224;DHT22;9746;47.180;9.776;2023-08-06T07:52:03;16.40;99.90
19224;DHT22;9746;47.180;9.776;2023-08-06T07:54:30;16.50;99.90
19224;DHT22;9746;47.180;9.776;2023-08-06T07:57:06;16.60;99.90
19224;DHT22;9746;47.180;9.776;2023-08-06T07:59:33;16.70;99.90
19224;DHT22;9746;47.180;9.776;2023-08-06T08:02:03;16.80;99.90
19224;DHT22;9746;47.180;9.776;2023-08-06T08:04:31;16.80;99.90
19224;DHT22;9746;47.180;9.776;2023-08-06T08:07:06;16.90;99.90
19224;DHT22;9746;47.180;9.776;2023-08-06T08:09:35;17.10;99.90
19224;DHT22;9746;47.180;9.776;2023-08-06T08:12:03;17.30;99.90
19224;DHT22;9746;47.180;9.776;2023-08-06T08:14:32;17.50;99.90
19224;DHT22;9746;47.180;9.776;2023-08-06T08:17:02;17.80;99.90
19224;DHT22;9746;47.180;9.776;2023-08-06T08:19:29;18.10;99.90
19224;DHT22;9746;47.180;9.776;2023-08-06T08:21:56;18.50;99.90
19224;DHT22;9746;47.180;9.776;2023-08-06T08:24:24;18.70;99.90
19224;DHT22;9746;47.180;9.776;2023-08-06T08:26:53;18.90;99.90
19224;DHT22;9746;47.180;9.776;2023-08-06T08:29:20;19.10;99.90
19224;DHT22;9746;47.180;9.776;2023-08-06T08:31:49;19.00;99.90
19224;DHT22;9746;47.180;9.776;2023-08-06T08:34:17;18.90;99.90
19224;DHT22;9746;47.180;9.776;2023-08-06T08:36:57;18.80;99.90
19224;DHT22;9746;47.180;9.776;2023-08-06T08:39:24;18.80;99.90
19224;DHT22;9746;47.180;9.776;2023-08-06T08:41:52;18.90;99.90
19224;DHT22;9746;47.180;9.776;2023-08-06T08:44:19;18.90;99.90
19224;DHT22;9746;47.180;9.776;2023-08-06T08:46:51;19.00;99.90
19224;DHT22;9746;47.180;9.776;2023-08-06T08:49:18;19.00;99.90
19224;DHT22;9746;47.180;9.776;2023-08-06T08:51:49;19.00;99.90
19224;DHT22;9746;47.180;9.776;2023-08-06T08:54:19;19.00;99.90
19224;DHT22;9746;47.180;9.776;2023-08-06T08:56:47;19.00;99.90
19224;DHT22;9746;47.180;9.776;2023-08-06T08:59:15;18.80;99.90
19224;DHT22;9746;47.180;9.776;2023-08-06T09:01:46;18.80;99.90
19224;DHT22;9746;47.180;9.776;2023-08-06T09:04:19;18.90;99.90
19224;DHT22;9746;47.180;9.776;2023-08-06T09:06:50;19.00;99.90
19224;DHT22;9746;47.180;9.776;2023-08-06T09:09:24;19.00;99.90
19224;DHT22;9746;47.180;9.776;2023-08-06T09:11:58;19.00;99.90
19224;DHT22;9746;47.180;9.776;2023-08-06T09:14:27;19.00;99.90
19224;DHT22;9746;47.180;9.776;2023-08-06T09:16:57;18.90;99.90
19224;DHT22;9746;47.180;9.776;2023-08-06T09:19:27;18.70;99.90
19224;DHT22;9746;47.180;9.776;2023-08-06T09:21:56;18.60;99.90
19224;DHT22;9746;47.180;9.776;2023-08-06T09:24:24;18.40;99.90
19224;DHT22;9746;47.180;9.776;2023-08-06T09:26:54;18.10;99.90
19224;DHT22;9746;47.180;9.776;2023-08-06T09:29:21;18.00;99.90
19224;DHT22;9746;47.180;9.776;2023-08-06T09:31:50;17.80;99.90
19224;DHT22;9746;47.180;9.776;2023-08-06T09:34:19;17.60;99.90
19224;DHT22;9746;47.180;9.776;2023-08-06T09:36:50;17.40;99.90
19224;DHT22;9746;47.180;9.776;2023-08-06T09:39:19;17.30;99.90
19224;DHT22;9746;47.180;9.776;2023-08-06T09:41:48;17.20;99.90
19224;DHT22;9746;47.180;9.776;2023-08-06T09:44:16;17.20;99.90
19224;DHT22;9746;47.180;9.776;2023-08-06T09:46:48;17.20;99.90
19224;DHT22;9746;47.180;9.776;2023-08-06T09:49:16;17.00;99.90
19224;DHT22;9746;47.180;9.776;2023-08-06T09:51:43;16.90;99.90
19224;DHT22;9746;47.180;9.776;2023-08-06T09:54:14;16.80;99.90
19224;DHT22;9746;47.180;9.776;2023-08-06T09:56:43;16.60;99.90
19224;DHT22;9746;47.180;9.776;2023-08-06T09:59:10;16.50;99.90
19224;DHT22;9746;47.180;9.776;2023-08-06T10:01:38;16.30;99.90
19224;DHT22;9746;47.180;9.776;2023-08-06T10:04:06;16.10;99.90
19224;DHT22;9746;47.180;9.776;2023-08-06T10:06:35;16.00;99.90
19224;DHT22;9746;47.180;9.776;2023-08-06T10:09:03;15.90;99.90
19224;DHT22;9746;47.180;9.776;2023-08-06T10:11:32;15.80;99.90
19224;DHT22;9746;47.180;9.776;2023-08-06T10:14:08;15.80;99.90
19224;DHT22;9746;47.180;9.776;2023-08-06T10:16:38;15.70;99.90
19224;DHT22;9746;47.180;9.776;2023-08-06T10:19:10;15.60;99.90
19224;DHT22;9746;47.180;9.776;2023-08-06T10:21:39;15.40;99.90
19224;DHT22;9746;47.180;9.776;2023-08-06T10:24:07;15.30;99.90
19224;DHT22;9746;47.180;9.776;2023-08-06T10:26:37;15.20;99.90
19224;DHT22;9746;47.180;9.776;2023-08-06T10:29:36;15.20;99.90
19224;DHT22;9746;47.180;9.776;2023-08-06T10:32:04;15.20;99.90
19224;DHT22;9746;47.180;9.776;2023-08-06T10:35:02;15.20;99.90
19224;DHT22;9746;47.180;9.776;2023-08-06T10:37:38;15.40;99.90
19224;DHT22;9746;47.180;9.776;2023-08-06T10:40:07;15.50;99.90
19224;DHT22;9746;47.180;9.776;2023-08-06T10:42:36;15.70;99.90
19224;DHT22;9746;47.180;9.776;2023-08-06T10:45:14;15.80;99.90
19224;DHT22;9746;47.180;9.776;2023-08-06T10:50:49;16.10;99.90
19224;DHT22;9746;47.180;9.776;2023-08-06T10:53:18;16.50;99.90
19224;DHT22;9746;47.180;9.776;2023-08-06T10:55:48;16.70;99.90
19224;DHT22;9746;47.180;9.776;2023-08-06T10:58:17;16.90;99.90
19224;DHT22;9746;47.180;9.776;2023-08-06T11:00:44;17.10;99.90
19224;DHT22;9746;47.180;9.776;2023-08-06T11:03:12;17.30;99.90
19224;DHT22;9746;47.180;9.776;2023-08-06T11:05:40;17.40;99.90
19224;DHT22;9746;47.180;9.776;2023-08-06T11:08:07;17.50;99.90
19224;DHT22;9746;47.180;9.776;2023-08-06T11:10:36;17.60;99.90
19224;DHT22;9746;47.180;9.776;2023-08-06T11:13:04;17.70;99.90
19224;DHT22;9746;47.180;9.776;2023-08-06T11:15:35;17.70;99.90
19224;DHT22;9746;47.180;9.776;2023-08-06T11:18:04;17.50;99.90
19224;DHT22;9746;47.180;9.776;2023-08-06T11:20:34;17.50;99.90
19224;DHT22;9746;47.180;9.776;2023-08-06T11:23:04;17.40;99.90
19224;DHT22;9746;47.180;9.776;2023-08-06T11:25:44;17.30;99.90
19224;DHT22;9746;47.180;9.776;2023-08-06T11:28:16;17.00;99.90
19224;DHT22;9746;47.180;9.776;2023-08-06T11:30:48;16.90;99.90
19224;DHT22;9746;47.180;9.776;2023-08-06T11:33:22;16.80;99.90
19224;DHT22;9746;47.180;9.776;2023-08-06T11:35:51;16.80;99.90
19224;DHT22;9746;47.180;9.776;2023-08-06T11:38:19;16.70;99.90
19224;DHT22;9746;47.180;9.776;2023-08-06T11:40:47;16.60;99.90
19224;DHT22;9746;47.180;9.776;2023-08-06T11:43:19;16.30;99.90
19224;DHT22;9746;47.180;9.776;2023-08-06T11:45:57;16.20;99.90
19224;DHT22;9746;47.180;9.776;2023-08-06T11:48:27;16.20;99.90
19224;DHT22;9746;47.180;9.776;2023-08-06T11:50:54;16.30;99.90
19224;DHT22;9746;47.180;9.776;2023-08-06T11:53:27;16.20;99.90
19224;DHT22;9746;47.180;9.776;2023-08-06T11:55:56;16.20;99.90
19224;DHT22;9746;47.180;9.776;2023-08-06T11:58:30;16.30;99.90
19224;DHT22;9746;47.180;9.776;2023-08-06T12:01:00;16.40;99.90
19224;DHT22;9746;47.180;9.776;2023-08-06T12:03:30;16.40;99.90
19224;DHT22;9746;47.180;9.776;2023-08-06T12:06:00;16.40;99.90
19224;DHT22;9746;47.180;9.776;2023-08-06T12:08:34;16.30;99.90
19224;DHT22;9746;47.180;9.776;2023-08-06T12:11:04;16.10;99.90
19224;DHT22;9746;47.180;9.776;2023-08-06T12:13:38;16.00;99.90
19224;DHT22;9746;47.180;9.776;2023-08-06T12:16:08;16.10;99.90
19224;DHT22;9746;47.180;9.776;2023-08-06T12:18:36;16.20;99.90
19224;DHT22;9746;47.180;9.776;2023-08-06T12:21:04;16.30;99.90
19224;DHT22;9746;47.180;9.776;2023-08-06T12:23:45;16.30;99.90
19224;DHT22;9746;47.180;9.776;2023-08-06T12:26:13;16.30;99.90
19224;DHT22;9746;47.180;9.776;2023-08-06T12:28:41;16.30;99.90
19224;DHT22;9746;47.180;9.776;2023-08-06T12:31:10;16.30;99.90
19224;DHT22;9746;47.180;9.776;2023-08-06T12:33:38;16.30;99.90
19224;DHT22;9746;47.180;9.776;2023-08-06T12:36:06;16.40;99.90
19224;DHT22;9746;47.180;9.776;2023-08-06T12:38:41;16.00;99.90
19224;DHT22;9746;47.180;9.776;2023-08-06T12:41:14;15.90;99.90
19224;DHT22;9746;47.180;9.776;2023-08-06T12:43:55;16.00;99.90
19224;DHT22;9746;47.180;9.776;2023-08-06T12:46:26;16.10;99.90
19224;DHT22;9746;47.180;9.776;2023-08-06T12:48:53;16.10;99.90
19224;DHT22;9746;47.180;9.776;2023-08-06T12:51:21;16.10;99.90
19224;DHT22;9746;47.180;9.776;2023-08-06T12:53:52;16.10;99.90
19224;DHT22;9746;47.180;9.776;2023-08-06T12:56:30;16.00;99.90
19224;DHT22;9746;47.180;9.776;2023-08-06T12:59:24;15.90;99.90
19224;DHT22;9746;47.180;9.776;2023-08-06T13:01:55;16.00;99.90
19224;DHT22;9746;47.180;9.776;2023-08-06T13:04:28;16.10;99.90
19224;DHT22;9746;47.180;9.776;2023-08-06T13:06:57;16.20;99.90
19224;DHT22;9746;47.180;9.776;2023-08-06T13:09:40;16.40;99.90
19224;DHT22;9746;47.180;9.776;2023-08-06T13:12:08;16.50;99.90
19224;DHT22;9746;47.180;9.776;2023-08-06T13:14:36;16.40;99.90
19224;DHT22;9746;47.180;9.776;2023-08-06T13:17:05;16.40;99.90
19224;DHT22;9746;47.180;9.776;2023-08-06T13:19:35;16.40;99.90
19224;DHT22;9746;47.180;9.776;2023-08-06T13:22:04;16.50;99.90
19224;DHT22;9746;47.180;9.776;2023-08-06T13:24:36;16.40;99.90
19224;DHT22;9746;47.180;9.776;2023-08-06T13:27:04;16.40;99.90
19224;DHT22;9746;47.180;9.776;2023-08-06T13:29:33;16.40;99.90
19224;DHT22;9746;47.180;9.776;2023-08-06T13:32:01;16.20;99.90
19224;DHT22;9746;47.180;9.776;2023-08-06T13:34:30;16.00;99.90
19224;DHT22;9746;47.180;9.776;2023-08-06T13:36:58;15.90;99.90
19224;DHT22;9746;47.180;9.776;2023-08-06T13:39:26;16.00;99.90
19224;DHT22;9746;47.180;9.776;2023-08-06T13:41:53;16.00;99.90
19224;DHT22;9746;47.180;9.776;2023-08-06T13:44:20;15.90;99.90
19224;DHT22;9746;47.180;9.776;2023-08-06T13:46:47;15.90;99.90
19224;DHT22;9746;47.180;9.776;2023-08-06T13:49:16;15.90;99.90
19224;DHT22;9746;47.180;9.776;2023-08-06T13:51:45;15.80;99.90
19224;DHT22;9746;47.180;9.776;2023-08-06T13:54:16;15.90;99.90
19224;DHT22;9746;47.180;9.776;2023-08-06T13:56:43;15.80;99.90
19224;DHT22;9746;47.180;9.776;2023-08-06T13:59:11;15.80;99.90
19224;DHT22;9746;47.180;9.776;2023-08-06T14:01:40;15.90;99.90
19224;DHT22;9746;47.180;9.776;2023-08-06T14:04:10;15.90;99.90
19224;DHT22;9746;47.180;9.776;2023-08-06T14:06:37;15.90;99.90
19224;DHT22;9746;47.180;9.776;2023-08-06T14:09:06;16.00;99.90
19224;DHT22;9746;47.180;9.776;2023-08-06T14:11:34;16.10;99.90
19224;DHT22;9746;47.180;9.776;2023-08-06T14:14:03;16.20;99.90
19224;DHT22;9746;47.180;9.776;2023-08-06T14:16:31;16.40;99.90
19224;DHT22;9746;47.180;9.776;2023-08-06T14:18:58;16.30;99.90
19224;DHT22;9746;47.180;9.776;2023-08-06T14:21:25;16.30;99.90
19224;DHT22;9746;47.180;9.776;2023-08-06T14:23:53;16.30;99.90
19224;DHT22;9746;47.180;9.776;2023-08-06T14:26:22;16.30;99.90
19224;DHT22;9746;47.180;9.776;2023-08-06T14:28:51;16.40;99.90
19224;DHT22;9746;47.180;9.776;2023-08-06T14:31:20;16.50;99.90
19224;DHT22;9746;47.180;9.776;2023-08-06T14:33:48;16.50;99.90
19224;DHT22;9746;47.180;9.776;2023-08-06T14:36:15;16.40;99.90
19224;DHT22;9746;47.180;9.776;2023-08-06T14:38:46;16.20;99.90
19224;DHT22;9746;47.180;9.776;2023-08-06T14:41:13;16.10;99.90
19224;DHT22;9746;47.180;9.776;2023-08-06T14:43:42;16.10;99.90
19224;DHT22;9746;47.180;9.776;2023-08-06T14:46:10;16.00;99.90
19224;DHT22;9746;47.180;9.776;2023-08-06T14:48:42;16.00;99.90
19224;DHT22;9746;47.180;9.776;2023-08-06T14:53:57;16.00;99.90
19224;DHT22;9746;47.180;9.776;2023-08-06T14:56:24;16.00;99.90
19224;DHT22;9746;47.180;9.776;2023-08-06T14:59:29;16.00;99.90
19224;DHT22;9746;47.180;9.776;2023-08-06T15:02:04;16.10;99.90
19224;DHT22;9746;47.180;9.776;2023-08-06T15:04:34;16.00;99.90
19224;DHT22;9746;47.180;9.776;2023-08-06T15:07:04;16.00;99.90
19224;DHT22;9746;47.180;9.776;2023-08-06T15:09:32;16.00;99.90
19224;DHT22;9746;47.180;9.776;2023-08-06T15:12:00;16.10;99.90
19224;DHT22;9746;47.180;9.776;2023-08-06T15:14:29;16.20;99.90
19224;DHT22;9746;47.180;9.776;2023-08-06T15:16:57;16.30;99.90
19224;DHT22;9746;47.180;9.776;2023-08-06T15:19:24;16.30;99.90
19224;DHT22;9746;47.180;9.776;2023-08-06T15:21:54;16.30;99.90
19224;DHT22;9746;47.180;9.776;2023-08-06T15:24:22;16.30;99.90
19224;DHT22;9746;47.180;9.776;2023-08-06T15:26:49;16.20;99.90
19224;DHT22;9746;47.180;9.776;2023-08-06T15:29:18;16.30;99.90
19224;DHT22;9746;47.180;9.776;2023-08-06T15:31:47;16.40;99.90
19224;DHT22;9746;47.180;9.776;2023-08-06T15:34:32;16.40;99.90
19224;DHT22;9746;47.180;9.776;2023-08-06T15:37:02;16.40;99.90
19224;DHT22;9746;47.180;9.776;2023-08-06T15:39:33;16.20;99.90
19224;DHT22;9746;47.180;9.776;2023-08-06T15:42:00;16.10;99.90
19224;DHT22;9746;47.180;9.776;2023-08-06T15:44:31;16.10;99.90
19224;DHT22;9746;47.180;9.776;2023-08-06T15:47:00;16.00;99.90
19224;DHT22;9746;47.180;9.776;2023-08-06T15:49:27;16.00;99.90
19224;DHT22;9746;47.180;9.776;2023-08-06T15:51:56;15.90;99.90
19224;DHT22;9746;47.180;9.776;2023-08-06T15:54:30;15.90;99.90
19224;DHT22;9746;47.180;9.776;2023-08-06T15:56:57;15.90;99.90
19224;DHT22;9746;47.180;9.776;2023-08-06T16:02:39;15.80;99.90
19224;DHT22;9746;47.180;9.776;2023-08-06T16:05:06;15.80;99.90
19224;DHT22;9746;47.180;9.776;2023-08-06T16:07:36;15.80;99.90
19224;DHT22;9746;47.180;9.776;2023-08-06T16:10:05;15.80;99.90
19224;DHT22;9746;47.180;9.776;2023-08-06T16:12:33;15.80;99.90
19224;DHT22;9746;47.180;9.776;2023-08-06T16:15:00;15.80;99.90
19224;DHT22;9746;47.180;9.776;2023-08-06T16:17:53;15.90;99.90
19224;DHT22;9746;47.180;9.776;2023-08-06T16:20:22;15.90;99.90
19224;DHT22;9746;47.180;9.776;2023-08-06T16:22:52;15.90;99.90
19224;DHT22;9746;47.180;9.776;2023-08-06T16:25:20;15.90;99.90
19224;DHT22;9746;47.180;9.776;2023-08-06T16:27:49;15.80;99.90
19224;DHT22;9746;47.180;9.776;2023-08-06T16:30:17;15.70;99.90
19224;DHT22;9746;47.180;9.776;2023-08-06T16:32:54;15.70;99.90
19224;DHT22;9746;47.180;9.776;2023-08-06T16:35:22;15.60;99.90
19224;DHT22;9746;47.180;9.776;2023-08-06T16:37:50;15.60;99.90
19224;DHT22;9746;47.180;9.776;2023-08-06T16:40:18;15.50;99.90
19224;DHT22;9746;47.180;9.776;2023-08-06T16:42:52;15.40;99.90
19224;DHT22;9746;47.180;9.776;2023-08-06T16:45:19;15.40;99.90
19224;DHT22;9746;47.180;9.776;2023-08-06T16:47:49;15.40;99.90
19224;DHT22;9746;47.180;9.776;2023-08-06T16:50:18;15.40;99.90
19224;DHT22;9746;47.180;9.776;2023-08-06T16:52:45;15.30;99.90
19224;DHT22;9746;47.180;9.776;2023-08-06T16:55:13;15.30;99.90
19224;DHT22;9746;47.180;9.776;2023-08-06T16:57:59;15.30;99.90
19224;DHT22;9746;47.180;9.776;2023-08-06T17:00:27;15.20;99.90
19224;DHT22;9746;47.180;9.776;2023-08-06T17:02:55;15.10;99.90
19224;DHT22;9746;47.180;9.776;2023-08-06T17:05:24;15.10;99.90
19224;DHT22;9746;47.180;9.776;2023-08-06T17:07:55;15.00;99.90
19224;DHT22;9746;47.180;9.776;2023-08-06T17:10:23;14.90;99.90
19224;DHT22;9746;47.180;9.776;2023-08-06T17:12:54;14.80;99.90
19224;DHT22;9746;47.180;9.776;2023-08-06T17:15:23;14.80;99.90
19224;DHT22;9746;47.180;9.776;2023-08-06T17:17:54;14.80;99.90
19224;DHT22;9746;47.180;9.776;2023-08-06T17:20:24;14.80;99.90
19224;DHT22;9746;47.180;9.776;2023-08-06T17:23:05;14.80;99.90
19224;DHT22;9746;47.180;9.776;2023-08-06T17:25:33;14.70;99.90
19224;DHT22;9746;47.180;9.776;2023-08-06T17:28:01;14.70;99.90
19224;DHT22;9746;47.180;9.776;2023-08-06T17:30:38;14.70;99.90
19224;DHT22;9746;47.180;9.776;2023-08-06T17:33:15;14.70;99.90
19224;DHT22;9746;47.180;9.776;2023-08-06T17:38:20;14.50;99.90
19224;DHT22;9746;47.180;9.776;2023-08-06T17:40:55;14.40;99.90
19224;DHT22;9746;47.180;9.776;2023-08-06T17:43:30;14.30;99.90
19224;DHT22;9746;47.180;9.776;2023-08-06T17:45:58;14.30;99.90
19224;DHT22;9746;47.180;9.776;2023-08-06T17:48:47;14.20;99.90
19224;DHT22;9746;47.180;9.776;2023-08-06T17:51:15;14.20;99.90
19224;DHT22;9746;47.180;9.776;2023-08-06T17:53:44;14.20;99.90
19224;DHT22;9746;47.180;9.776;2023-08-06T17:56:11;14.20;99.90
19224;DHT22;9746;47.180;9.776;2023-08-06T17:58:51;14.20;99.90
19224;DHT22;9746;47.180;9.776;2023-08-06T18:01:19;14.20;99.90
19224;DHT22;9746;47.180;9.776;2023-08-06T18:03:46;14.20;99.90
19224;DHT22;9746;47.180;9.776;2023-08-06T18:06:16;14.20;99.90
19224;DHT22;9746;47.180;9.776;2023-08-06T18:08:47;14.20;99.90
19224;DHT22;9746;47.180;9.776;2023-08-06T18:11:14;14.10;99.90
19224;DHT22;9746;47.180;9.776;2023-08-06T18:13:44;14.10;99.90
19224;DHT22;9746;47.180;9.776;2023-08-06T18:16:11;14.00;99.90
19224;DHT22;9746;47.180;9.776;2023-08-06T18:18:39;13.90;99.90
19224;DHT22;9746;47.180;9.776;2023-08-06T18:21:06;13.90;99.90
19224;DHT22;9746;47.180;9.776;2023-08-06T18:23:47;13.80;99.90
19224;DHT22;9746;47.180;9.776;2023-08-06T18:26:15;13.80;99.90
19224;DHT22;9746;47.180;9.776;2023-08-06T18:28:50;13.70;99.90
19224;DHT22;9746;47.180;9.776;2023-08-06T18:31:18;13.60;99.90
19224;DHT22;9746;47.180;9.776;2023-08-06T18:33:47;13.60;99.90
19224;DHT22;9746;47.180;9.776;2023-08-06T18:36:14;13.50;99.90
19224;DHT22;9746;47.180;9.776;2023-08-06T18:38:44;13.50;99.90
19224;DHT22;9746;47.180;9.776;2023-08-06T18:41:17;13.50;99.90
19224;DHT22;9746;47.180;9.776;2023-08-06T18:43:44;13.50;99.90
19224;DHT22;9746;47.180;9.776;2023-08-06T18:46:11;13.50;99.90
19224;DHT22;9746;47.180;9.776;2023-08-06T18:48:39;13.50;99.90
19224;DHT22;9746;47.180;9.776;2023-08-06T18:51:06;13.30;99.90
19224;DHT22;9746;47.180;9.776;2023-08-06T18:53:42;13.20;99.90
19224;DHT22;9746;47.180;9.776;2023-08-06T18:56:09;13.20;99.90
19224;DHT22;9746;47.180;9.776;2023-08-06T18:58:38;13.00;99.90
19224;DHT22;9746;47.180;9.776;2023-08-06T19:01:06;13.00;99.90
19224;DHT22;9746;47.180;9.776;2023-08-06T19:03:33;12.90;99.90
19224;DHT22;9746;47.180;9.776;2023-08-06T19:06:01;13.00;99.90
19224;DHT22;9746;47.180;9.776;2023-08-06T19:08:37;13.00;99.90
19224;DHT22;9746;47.180;9.776;2023-08-06T19:11:08;13.00;99.90
19224;DHT22;9746;47.180;9.776;2023-08-06T19:13:40;13.00;99.90
19224;DHT22;9746;47.180;9.776;2023-08-06T19:16:15;13.00;99.90
19224;DHT22;9746;47.180;9.776;2023-08-06T19:18:47;13.10;99.90
19224;DHT22;9746;47.180;9.776;2023-08-06T19:21:15;13.10;99.90
19224;DHT22;9746;47.180;9.776;2023-08-06T19:23:44;13.10;99.90
19224;DHT22;9746;47.180;9.776;2023-08-06T19:26:11;13.00;99.90
19224;DHT22;9746;47.180;9.776;2023-08-06T19:28:49;13.00;99.90
19224;DHT22;9746;47.180;9.776;2023-08-06T19:31:16;12.80;99.90
19224;DHT22;9746;47.180;9.776;2023-08-06T19:33:46;12.80;99.90
19224;DHT22;9746;47.180;9.776;2023-08-06T19:36:13;12.80;99.90
19224;DHT22;9746;47.180;9.776;2023-08-06T19:38:47;12.60;99.90
19224;DHT22;9746;47.180;9.776;2023-08-06T19:41:14;12.40;99.90
19224;DHT22;9746;47.180;9.776;2023-08-06T19:43:42;12.30;99.90
19224;DHT22;9746;47.180;9.776;2023-08-06T19:46:11;12.20;99.90
19224;DHT22;9746;47.180;9.776;2023-08-06T19:48:44;12.20;99.90
19224;DHT22;9746;47.180;9.776;2023-08-06T19:51:13;12.10;99.90
19224;DHT22;9746;47.180;9.776;2023-08-06T19:53:52;12.20;99.90
19224;DHT22;9746;47.180;9.776;2023-08-06T19:56:20;12.20;99.90
19224;DHT22;9746;47.180;9.776;2023-08-06T19:59:04;12.30;99.90
19224;DHT22;9746;47.180;9.776;2023-08-06T20:01:33;12.30;99.90
19224;DHT22;9746;47.180;9.776;2023-08-06T20:04:01;12.30;99.90
19224;DHT22;9746;47.180;9.776;2023-08-06T20:06:28;12.10;99.90
19224;DHT22;9746;47.180;9.776;2023-08-06T20:09:03;12.10;99.90
19224;DHT22;9746;47.180;9.776;2023-08-06T20:11:30;12.10;99.90
19224;DHT22;9746;47.180;9.776;2023-08-06T20:13:58;12.10;99.90
19224;DHT22;9746;47.180;9.776;2023-08-06T20:16:26;12.20;99.90
19224;DHT22;9746;47.180;9.776;2023-08-06T20:18:57;12.20;99.90
